createdAt,value
2018-05-31T00:01:52.752Z,18.70
2018-05-31T00:04:21.785Z,18.60
2018-05-31T00:06:50.139Z,18.60
2018-05-31T00:09:18.466Z,18.50
2018-05-31T00:11:46.793Z,18.50
2018-05-31T00:14:15.129Z,18.60
2018-05-31T00:16:44.287Z,18.70
2018-05-31T00:19:12.825Z,18.70
2018-05-31T00:21:41.314Z,18.80
2018-05-31T00:24:09.729Z,18.70
2018-05-31T00:26:38.233Z,18.70
2018-05-31T00:29:06.535Z,18.70
2018-05-31T00:31:34.841Z,19.00
2018-05-31T00:34:03.197Z,18.90
2018-05-31T00:36:31.484Z,18.80
2018-05-31T00:39:00.873Z,18.90
2018-05-31T00:41:30.715Z,19.00
2018-05-31T00:43:59.021Z,19.00
2018-05-31T00:46:27.352Z,19.10
2018-05-31T00:48:56.437Z,19.00
2018-05-31T00:51:24.776Z,19.00
2018-05-31T00:53:53.878Z,18.70
2018-05-31T00:56:22.266Z,18.70
2018-05-31T00:58:50.548Z,18.70
2018-05-31T01:01:18.885Z,18.70
2018-05-31T01:03:47.990Z,18.60
2018-05-31T01:06:16.379Z,18.60
2018-05-31T01:08:44.729Z,18.50
2018-05-31T01:11:13.842Z,18.30
2018-05-31T01:13:42.169Z,18.30
2018-05-31T01:16:10.509Z,18.30
2018-05-31T01:18:39.021Z,18.20
2018-05-31T01:21:07.319Z,18.30
2018-05-31T01:23:35.604Z,18.40
2018-05-31T01:26:04.034Z,18.30
2018-05-31T01:28:32.378Z,18.30
2018-05-31T01:31:00.726Z,18.40
2018-05-31T01:33:29.083Z,18.50
2018-05-31T01:35:57.505Z,18.50
2018-05-31T01:38:31.769Z,18.50
2018-05-31T01:41:00.188Z,18.30
2018-05-31T01:43:28.476Z,18.20
2018-05-31T01:45:56.772Z,18.10
2018-05-31T01:48:25.126Z,18.20
2018-05-31T01:50:54.198Z,18.10
2018-05-31T01:53:22.520Z,18.10
2018-05-31T01:55:50.857Z,18.30
2018-05-31T01:58:19.926Z,18.00
2018-05-31T02:00:48.354Z,18.00
2018-05-31T02:03:18.189Z,17.90
2018-05-31T02:05:47.278Z,17.80
2018-05-31T02:08:15.626Z,17.80
2018-05-31T02:10:43.998Z,17.70
2018-05-31T02:13:12.926Z,17.70
2018-05-31T02:15:41.474Z,17.70
2018-05-31T02:18:09.927Z,17.80
2018-05-31T02:20:38.284Z,17.80
2018-05-31T02:23:06.652Z,17.70
2018-05-31T02:25:34.957Z,17.70
2018-05-31T02:28:03.356Z,17.70
2018-05-31T02:30:31.761Z,17.70
2018-05-31T02:33:00.820Z,17.60
2018-05-31T02:35:30.012Z,17.70
2018-05-31T02:37:58.426Z,17.70
2018-05-31T02:40:27.724Z,17.60
2018-05-31T02:42:56.142Z,17.60
2018-05-31T02:45:24.550Z,17.60
2018-05-31T02:47:53.157Z,17.50
2018-05-31T02:50:21.462Z,17.50
2018-05-31T02:52:49.773Z,17.40
2018-05-31T02:55:18.977Z,17.40
2018-05-31T02:57:47.281Z,17.50
2018-05-31T03:00:17.093Z,17.40
2018-05-31T03:02:45.453Z,17.40
2018-05-31T03:05:14.545Z,17.50
2018-05-31T03:07:43.016Z,17.50
2018-05-31T03:10:11.365Z,17.50
2018-05-31T03:12:39.844Z,17.60
2018-05-31T03:15:08.139Z,17.70
2018-05-31T03:17:36.441Z,17.60
2018-05-31T03:20:04.801Z,17.60
2018-05-31T03:22:33.165Z,17.50
2018-05-31T03:25:01.510Z,17.50
2018-05-31T03:27:29.887Z,17.50
2018-05-31T03:29:58.366Z,17.50
2018-05-31T03:32:29.858Z,17.50
2018-05-31T03:34:58.934Z,17.60
2018-05-31T03:37:29.225Z,17.50
2018-05-31T03:39:57.573Z,17.50
2018-05-31T03:42:25.878Z,17.60
2018-05-31T03:44:54.350Z,17.60
2018-05-31T03:47:23.422Z,18.00
2018-05-31T03:49:51.713Z,18.00
2018-05-31T03:52:20.061Z,18.70
2018-05-31T03:54:48.461Z,18.90
2018-05-31T03:57:17.081Z,18.90
2018-05-31T03:59:45.548Z,18.70
2018-05-31T04:02:13.972Z,18.50
2018-05-31T04:04:42.405Z,18.60
2018-05-31T04:07:11.525Z,18.50
2018-05-31T04:09:40.636Z,18.70
2018-05-31T04:12:09.734Z,18.90
2018-05-31T04:14:38.152Z,18.90
2018-05-31T04:17:07.204Z,19.10
2018-05-31T04:19:36.274Z,19.10
2018-05-31T04:22:04.580Z,19.10
2018-05-31T04:24:32.999Z,19.20
2018-05-31T04:27:01.350Z,19.30
2018-05-31T04:29:29.721Z,19.30
2018-05-31T04:31:58.090Z,19.50
2018-05-31T04:34:26.385Z,19.70
2018-05-31T04:36:54.745Z,19.80
2018-05-31T04:39:23.837Z,20.00
2018-05-31T04:41:52.132Z,20.00
2018-05-31T04:44:20.469Z,20.00
2018-05-31T04:46:49.524Z,20.30
2018-05-31T04:49:18.021Z,20.20
2018-05-31T04:51:46.415Z,20.20
2018-05-31T04:54:15.529Z,20.50
2018-05-31T04:56:43.878Z,20.40
2018-05-31T04:59:12.175Z,20.50
2018-05-31T05:01:40.591Z,20.60
2018-05-31T05:04:08.902Z,20.70
2018-05-31T05:06:37.249Z,20.90
2018-05-31T05:09:05.687Z,21.00
2018-05-31T05:11:34.061Z,20.80
2018-05-31T05:14:02.495Z,20.90
2018-05-31T05:16:30.945Z,21.00
2018-05-31T05:18:59.283Z,21.20
2018-05-31T05:21:28.473Z,21.90
2018-05-31T05:23:56.847Z,21.90
2018-05-31T05:26:25.167Z,22.00
2018-05-31T05:28:54.265Z,21.60
2018-05-31T05:31:22.664Z,21.60
2018-05-31T05:33:51.046Z,21.50
2018-05-31T05:36:19.509Z,21.60
2018-05-31T05:38:48.628Z,21.80
2018-05-31T05:41:17.117Z,21.70
2018-05-31T05:43:46.245Z,21.90
2018-05-31T05:46:15.446Z,22.00
2018-05-31T05:48:44.521Z,22.10
2018-05-31T05:51:12.977Z,22.10
2018-05-31T05:53:42.137Z,22.20
2018-05-31T05:56:10.481Z,22.20
2018-05-31T05:58:38.836Z,22.70
2018-05-31T06:01:07.398Z,22.90
2018-05-31T06:03:36.518Z,23.60
2018-05-31T06:06:04.926Z,23.60
2018-05-31T06:08:33.282Z,23.90
2018-05-31T06:11:01.619Z,24.20
2018-05-31T06:13:31.091Z,24.00
2018-05-31T06:16:00.533Z,24.20
2018-05-31T06:18:29.718Z,24.50
2018-05-31T06:20:58.803Z,24.60
2018-05-31T06:23:27.184Z,24.60
2018-05-31T06:25:55.493Z,24.60
2018-05-31T06:28:23.833Z,24.50
2018-05-31T06:30:53.705Z,24.20
2018-05-31T06:33:22.804Z,24.10
2018-05-31T06:35:51.192Z,24.10
2018-05-31T06:38:19.534Z,24.20
2018-05-31T06:40:48.598Z,24.30
2018-05-31T06:43:17.034Z,24.30
2018-05-31T06:45:45.341Z,24.10
2018-05-31T06:48:13.831Z,24.30
2018-05-31T06:50:42.130Z,24.70
2018-05-31T06:53:10.483Z,25.00
2018-05-31T06:55:38.781Z,25.20
2018-05-31T06:58:07.879Z,24.90
2018-05-31T07:00:36.189Z,24.90
2018-05-31T07:03:05.281Z,25.00
2018-05-31T07:05:33.621Z,25.00
2018-05-31T07:08:02.686Z,25.50
2018-05-31T07:10:31.020Z,25.50
2018-05-31T07:12:59.499Z,25.50
2018-05-31T07:15:27.954Z,25.40
2018-05-31T07:17:57.090Z,25.20
2018-05-31T07:20:25.447Z,25.20
2018-05-31T07:22:53.797Z,25.70
2018-05-31T07:25:22.146Z,25.60
2018-05-31T07:27:50.449Z,25.80
2018-05-31T07:30:19.057Z,25.90
2018-05-31T07:32:47.365Z,26.10
2018-05-31T07:35:15.682Z,26.50
2018-05-31T07:37:44.073Z,26.30
2018-05-31T07:40:12.370Z,26.10
2018-05-31T07:42:40.665Z,26.10
2018-05-31T07:45:09.007Z,26.40
2018-05-31T07:47:38.107Z,27.00
2018-05-31T07:50:06.490Z,27.00
2018-05-31T07:52:34.838Z,27.00
2018-05-31T07:55:03.888Z,27.30
2018-05-31T07:57:32.233Z,27.30
2018-05-31T08:00:00.634Z,27.10
2018-05-31T08:02:29.008Z,27.00
2018-05-31T08:04:57.472Z,27.10
2018-05-31T08:07:26.574Z,27.20
2018-05-31T08:09:54.957Z,27.10
2018-05-31T08:12:23.248Z,27.10
2018-05-31T08:14:51.734Z,27.30
2018-05-31T08:17:20.035Z,27.20
2018-05-31T08:19:48.330Z,27.60
2018-05-31T08:22:16.662Z,28.00
2018-05-31T08:24:44.957Z,28.10
2018-05-31T08:27:13.284Z,27.90
2018-05-31T08:29:41.621Z,28.00
2018-05-31T08:32:10.661Z,28.50
2018-05-31T08:34:39.002Z,28.40
2018-05-31T08:37:07.390Z,28.60
2018-05-31T08:39:35.720Z,28.80
2018-05-31T08:42:04.013Z,28.40
2018-05-31T08:44:32.345Z,28.40
2018-05-31T08:47:01.540Z,28.40
2018-05-31T08:49:29.901Z,28.40
2018-05-31T08:51:58.276Z,28.60
2018-05-31T08:54:27.612Z,28.60
2018-05-31T08:56:56.711Z,28.70
2018-05-31T08:59:25.773Z,28.70
2018-05-31T09:01:54.216Z,28.70
2018-05-31T09:04:22.505Z,29.00
2018-05-31T09:06:50.814Z,29.00
2018-05-31T09:09:19.163Z,29.00
2018-05-31T09:11:48.336Z,28.60
2018-05-31T09:14:16.657Z,28.60
2018-05-31T09:16:44.985Z,29.00
2018-05-31T09:19:14.060Z,29.40
2018-05-31T09:21:42.356Z,29.30
2018-05-31T09:24:10.774Z,29.40
2018-05-31T09:26:39.057Z,29.30
2018-05-31T09:29:07.368Z,29.30
2018-05-31T09:31:35.705Z,28.50
2018-05-31T09:34:04.763Z,29.10
2018-05-31T09:36:33.053Z,29.10
2018-05-31T09:39:01.610Z,28.90
2018-05-31T09:41:29.960Z,28.80
2018-05-31T09:43:58.280Z,28.90
2018-05-31T09:46:26.626Z,29.20
2018-05-31T09:48:55.004Z,29.50
2018-05-31T09:51:23.290Z,29.80
2018-05-31T09:53:51.618Z,29.60
2018-05-31T09:56:19.903Z,29.40
2018-05-31T09:58:48.226Z,29.40
2018-05-31T10:01:16.525Z,29.20
2018-05-31T10:03:44.841Z,29.20
2018-05-31T10:06:13.445Z,29.20
2018-05-31T10:08:41.828Z,29.10
2018-05-31T10:11:10.117Z,29.30
2018-05-31T10:13:38.437Z,29.40
2018-05-31T10:16:06.746Z,29.70
2018-05-31T10:18:35.045Z,29.60
2018-05-31T10:21:03.365Z,29.30
2018-05-31T10:23:31.771Z,29.20
2018-05-31T10:26:00.202Z,29.30
2018-05-31T10:28:28.644Z,29.40
2018-05-31T10:30:57.601Z,29.30
2018-05-31T10:33:26.802Z,29.70
2018-05-31T10:35:55.097Z,29.70
2018-05-31T10:38:23.418Z,30.10
2018-05-31T10:40:51.744Z,29.90
2018-05-31T10:43:20.792Z,29.70
2018-05-31T10:45:49.081Z,29.70
2018-05-31T10:48:17.438Z,29.70
2018-05-31T10:50:46.569Z,30.10
2018-05-31T10:53:14.926Z,30.10
2018-05-31T10:55:43.274Z,30.30
2018-05-31T10:58:11.661Z,30.10
2018-05-31T11:00:39.945Z,30.20
2018-05-31T11:03:08.272Z,30.30
2018-05-31T11:05:36.668Z,30.50
2018-05-31T11:08:04.953Z,30.40
2018-05-31T11:10:33.482Z,30.20
2018-05-31T11:13:01.873Z,30.20
2018-05-31T11:15:30.377Z,30.00
2018-05-31T11:17:58.989Z,30.00
2018-05-31T11:20:27.637Z,30.30
2018-05-31T11:22:56.007Z,30.40
2018-05-31T11:25:24.297Z,30.70
2018-05-31T11:27:52.629Z,30.60
2018-05-31T11:30:20.916Z,30.60
2018-05-31T11:32:49.242Z,30.60
2018-05-31T11:35:17.529Z,30.60
2018-05-31T11:37:45.898Z,30.80
2018-05-31T11:40:14.193Z,30.80
2018-05-31T11:42:42.481Z,30.70
2018-05-31T11:45:10.808Z,30.80
2018-05-31T11:47:39.130Z,31.20
2018-05-31T11:50:07.534Z,31.40
2018-05-31T11:52:35.821Z,31.30
2018-05-31T11:55:04.157Z,30.90
2018-05-31T11:57:32.507Z,30.70
2018-05-31T12:00:00.895Z,30.80
2018-05-31T12:02:29.629Z,30.60
2018-05-31T12:04:57.969Z,30.50
2018-05-31T12:07:26.257Z,30.60
2018-05-31T12:09:54.593Z,30.60
2018-05-31T12:12:23.649Z,30.90
2018-05-31T12:14:51.988Z,30.90
2018-05-31T12:17:20.391Z,30.90
2018-05-31T12:19:48.793Z,31.10
2018-05-31T12:22:17.157Z,31.00
2018-05-31T12:24:45.452Z,31.30
2018-05-31T12:27:13.792Z,31.90
2018-05-31T12:29:42.205Z,32.30
2018-05-31T12:32:10.515Z,32.10
2018-05-31T12:34:38.859Z,32.40
2018-05-31T12:37:07.953Z,32.60
2018-05-31T12:39:36.333Z,32.70
2018-05-31T12:42:04.656Z,32.40
2018-05-31T12:44:33.232Z,32.40
2018-05-31T12:47:01.531Z,32.60
2018-05-31T12:49:29.845Z,31.90
2018-05-31T12:51:58.221Z,31.70
2018-05-31T12:54:26.510Z,31.50
2018-05-31T12:56:55.684Z,30.90
2018-05-31T12:59:24.069Z,30.90
2018-05-31T13:01:52.389Z,30.90
2018-05-31T13:04:21.705Z,31.20
2018-05-31T13:06:50.025Z,31.20
2018-05-31T13:09:18.704Z,31.40
2018-05-31T13:11:47.318Z,31.70
2018-05-31T13:14:15.630Z,32.00
2018-05-31T13:16:43.926Z,31.80
2018-05-31T13:19:12.592Z,31.90
2018-05-31T13:21:41.636Z,31.70
2018-05-31T13:24:10.424Z,31.60
2018-05-31T13:26:39.498Z,31.30
2018-05-31T13:29:08.101Z,31.30
2018-05-31T13:31:36.411Z,31.20
2018-05-31T13:34:04.698Z,31.20
2018-05-31T13:36:33.201Z,30.80
2018-05-31T13:39:01.634Z,30.80
2018-05-31T13:41:29.977Z,31.00
2018-05-31T13:43:58.424Z,31.20
2018-05-31T13:46:27.697Z,31.30
2018-05-31T13:48:56.045Z,31.70
2018-05-31T13:51:24.441Z,32.00
2018-05-31T13:53:52.770Z,32.40
2018-05-31T13:56:21.061Z,32.10
2018-05-31T13:58:49.380Z,31.70
2018-05-31T14:01:17.701Z,31.90
2018-05-31T14:03:46.794Z,31.10
2018-05-31T14:06:15.078Z,31.10
2018-05-31T14:08:43.493Z,30.70
2018-05-31T14:11:11.774Z,30.60
2018-05-31T14:13:40.297Z,30.20
2018-05-31T14:16:08.596Z,30.20
2018-05-31T14:18:36.881Z,30.80
2018-05-31T14:21:05.400Z,31.70
2018-05-31T14:23:33.800Z,32.50
2018-05-31T14:26:02.414Z,33.00
2018-05-31T14:28:31.018Z,33.50
2018-05-31T14:30:59.532Z,33.70
2018-05-31T14:33:28.158Z,33.00
2018-05-31T14:35:56.482Z,32.30
2018-05-31T14:38:24.861Z,31.70
2018-05-31T14:40:53.154Z,31.20
2018-05-31T14:43:21.551Z,31.30
2018-05-31T14:45:49.936Z,31.00
2018-05-31T14:48:18.368Z,31.00
2018-05-31T14:50:46.874Z,30.90
2018-05-31T14:53:15.381Z,30.70
2018-05-31T14:55:43.691Z,30.80
2018-05-31T14:58:11.985Z,30.70
2018-05-31T15:00:40.315Z,30.50
2018-05-31T15:03:08.652Z,30.50
2018-05-31T15:05:37.024Z,30.30
2018-05-31T15:08:05.291Z,30.30
2018-05-31T15:10:33.697Z,30.90
2018-05-31T15:13:02.138Z,31.70
2018-05-31T15:15:31.357Z,35.10
2018-05-31T15:18:00.029Z,35.00
2018-05-31T15:20:28.616Z,37.10
2018-05-31T15:22:57.035Z,38.00
2018-05-31T15:25:25.377Z,37.50
2018-05-31T15:27:53.661Z,36.60
2018-05-31T15:30:22.018Z,36.30
2018-05-31T15:32:50.765Z,36.60
2018-05-31T15:35:19.359Z,36.10
2018-05-31T15:37:47.726Z,35.90
2018-05-31T15:40:16.911Z,36.90
2018-05-31T15:42:45.990Z,37.10
2018-05-31T15:45:14.268Z,37.10
2018-05-31T15:47:43.357Z,35.40
2018-05-31T15:50:12.785Z,34.20
2018-05-31T15:52:41.088Z,34.20
2018-05-31T15:55:09.380Z,33.70
2018-05-31T15:57:37.705Z,33.10
2018-05-31T16:00:05.997Z,32.30
2018-05-31T16:02:34.582Z,31.60
2018-05-31T16:05:03.388Z,31.10
2018-05-31T16:07:32.005Z,30.80
2018-05-31T16:10:00.654Z,30.90
2018-05-31T16:12:29.425Z,30.80
2018-05-31T16:14:58.335Z,30.80
2018-05-31T16:17:26.999Z,30.70
2018-05-31T16:19:56.147Z,30.80
2018-05-31T16:22:25.516Z,30.90
2018-05-31T16:24:55.453Z,31.50
2018-05-31T16:27:23.779Z,31.50
2018-05-31T16:29:52.068Z,31.50
2018-05-31T16:32:20.453Z,31.60
2018-05-31T16:34:48.947Z,32.80
2018-05-31T16:37:17.261Z,34.50
2018-05-31T16:39:45.607Z,35.70
2018-05-31T16:42:13.955Z,36.20
2018-05-31T16:44:42.365Z,36.90
2018-05-31T16:47:10.653Z,36.90
2018-05-31T16:49:39.181Z,35.30
2018-05-31T16:52:07.477Z,34.40
2018-05-31T16:54:35.989Z,33.70
2018-05-31T16:57:04.364Z,32.80
2018-05-31T16:59:32.698Z,31.90
2018-05-31T17:02:01.061Z,31.70
2018-05-31T17:04:29.498Z,31.50
2018-05-31T17:06:57.841Z,31.00
2018-05-31T17:09:27.248Z,30.60
2018-05-31T17:11:55.529Z,30.60
2018-05-31T17:14:23.850Z,30.50
2018-05-31T17:16:53.669Z,30.20
2018-05-31T17:19:22.257Z,30.20
2018-05-31T17:21:50.582Z,29.90
2018-05-31T17:24:19.245Z,29.80
2018-05-31T17:26:48.585Z,29.90
2018-05-31T17:29:16.913Z,29.90
2018-05-31T17:31:45.296Z,29.70
2018-05-31T17:34:13.608Z,29.80
2018-05-31T17:36:42.003Z,29.70
2018-05-31T17:39:10.322Z,29.60
2018-05-31T17:41:38.609Z,29.60
2018-05-31T17:44:06.898Z,29.60
2018-05-31T17:46:35.222Z,29.50
2018-05-31T17:49:03.501Z,29.60
2018-05-31T17:51:31.793Z,29.70
2018-05-31T17:54:00.880Z,30.40
2018-05-31T17:56:29.571Z,30.40
2018-05-31T17:58:57.916Z,30.70
2018-05-31T18:01:26.962Z,30.30
2018-05-31T18:03:55.350Z,30.30
2018-05-31T18:06:23.641Z,30.20
2018-05-31T18:08:52.202Z,29.80
2018-05-31T18:11:20.524Z,29.40
2018-05-31T18:13:48.902Z,29.00
2018-05-31T18:16:17.514Z,28.80
2018-05-31T18:18:45.788Z,28.60
2018-05-31T18:21:14.121Z,28.50
2018-05-31T18:23:42.449Z,28.40
2018-05-31T18:26:11.628Z,28.00
2018-05-31T18:28:39.914Z,27.90
2018-05-31T18:31:08.246Z,27.90
2018-05-31T18:33:36.614Z,27.70
2018-05-31T18:36:04.893Z,27.70
2018-05-31T18:38:33.371Z,27.50
2018-05-31T18:41:01.737Z,27.40
2018-05-31T18:43:30.049Z,27.20
2018-05-31T18:45:58.445Z,27.10
2018-05-31T18:48:26.750Z,27.00
2018-05-31T18:50:55.070Z,27.00
2018-05-31T18:53:23.353Z,26.90
2018-05-31T18:55:51.749Z,26.80
2018-05-31T18:58:20.058Z,26.80
2018-05-31T19:00:48.376Z,26.70
2018-05-31T19:03:16.665Z,26.70
2018-05-31T19:05:44.994Z,26.60
2018-05-31T19:08:14.176Z,26.50
2018-05-31T19:10:42.505Z,26.50
2018-05-31T19:13:16.533Z,26.40
2018-05-31T19:15:44.925Z,26.50
2018-05-31T19:18:19.069Z,26.50
2018-05-31T19:20:47.355Z,26.40
2018-05-31T19:23:15.650Z,26.40
2018-05-31T19:25:43.979Z,26.30
2018-05-31T19:28:12.301Z,26.10
2018-05-31T19:30:46.998Z,25.70
2018-05-31T19:33:15.442Z,25.70
2018-05-31T19:35:50.853Z,25.30
2018-05-31T19:38:19.974Z,25.10
2018-05-31T19:40:49.045Z,25.10
2018-05-31T19:43:23.201Z,25.00
2018-05-31T19:45:51.573Z,25.10
2018-05-31T19:48:19.856Z,24.90
2018-05-31T19:50:48.182Z,24.80
2018-05-31T19:53:22.226Z,24.70
2018-05-31T19:55:50.549Z,24.70
2018-05-31T19:58:24.661Z,24.60
2018-05-31T20:00:58.947Z,24.50
2018-05-31T20:03:33.193Z,24.40
2018-05-31T20:06:02.468Z,24.30
2018-05-31T20:08:30.774Z,24.30
2018-05-31T20:10:59.060Z,24.20
2018-05-31T20:13:27.527Z,24.20
2018-05-31T20:15:56.585Z,24.30
2018-05-31T20:18:24.870Z,24.30
2018-05-31T20:20:53.219Z,24.40
2018-05-31T20:23:21.613Z,24.40
2018-05-31T20:25:49.936Z,24.40
2018-05-31T20:28:18.312Z,24.30
2018-05-31T20:30:46.713Z,24.20
2018-05-31T20:33:15.738Z,24.00
2018-05-31T20:35:44.069Z,24.00
2018-05-31T20:38:13.563Z,23.90
2018-05-31T20:40:41.850Z,23.90
2018-05-31T20:43:10.373Z,23.80
2018-05-31T20:45:38.689Z,23.80
2018-05-31T20:48:07.260Z,23.70
2018-05-31T20:50:35.629Z,23.60
2018-05-31T20:53:04.096Z,23.60
2018-05-31T20:55:32.432Z,23.50
2018-05-31T20:58:00.810Z,23.60
2018-05-31T21:00:29.179Z,23.50
2018-05-31T21:02:57.464Z,23.50
2018-05-31T21:05:26.565Z,23.30
2018-05-31T21:07:54.937Z,23.30
2018-05-31T21:10:23.308Z,23.20
2018-05-31T21:12:51.645Z,23.10
2018-05-31T21:15:19.928Z,23.10
2018-05-31T21:17:48.400Z,23.00
2018-05-31T21:20:17.682Z,23.00
2018-05-31T21:22:46.023Z,23.00
2018-05-31T21:25:15.090Z,22.90
2018-05-31T21:27:43.633Z,22.90
2018-05-31T21:30:12.753Z,22.70
2018-05-31T21:32:41.151Z,22.60
2018-05-31T21:35:10.249Z,22.60
2018-05-31T21:37:38.545Z,22.60
2018-05-31T21:40:06.829Z,22.60
2018-05-31T21:42:35.204Z,22.60
2018-05-31T21:45:03.646Z,22.60
2018-05-31T21:47:31.973Z,22.60
2018-05-31T21:50:00.312Z,22.70
2018-05-31T21:52:29.442Z,22.70
2018-05-31T21:54:57.793Z,22.70
2018-05-31T21:57:26.089Z,22.60
2018-05-31T21:59:54.429Z,22.50
2018-05-31T22:02:23.569Z,22.40
2018-05-31T22:04:52.025Z,22.40
2018-05-31T22:07:20.621Z,22.50
2018-05-31T22:09:49.046Z,22.30
2018-05-31T22:12:17.401Z,22.10
2018-05-31T22:14:45.743Z,21.90
2018-05-31T22:17:14.093Z,22.00
2018-05-31T22:19:42.417Z,22.00
2018-05-31T22:22:10.721Z,21.80
2018-05-31T22:24:39.081Z,21.70
2018-05-31T22:27:08.132Z,21.70
2018-05-31T22:29:36.469Z,21.70
2018-05-31T22:32:04.877Z,21.50
2018-05-31T22:34:33.174Z,21.30
2018-05-31T22:37:01.679Z,21.20
2018-05-31T22:39:30.053Z,21.10
2018-05-31T22:41:58.490Z,21.00
2018-05-31T22:44:26.859Z,21.00
2018-05-31T22:46:55.925Z,20.90
2018-05-31T22:49:24.822Z,20.90
2018-05-31T22:51:53.243Z,20.80
2018-05-31T22:54:21.524Z,20.80
2018-05-31T22:56:49.816Z,20.80
2018-05-31T22:59:18.214Z,21.00
2018-05-31T23:01:46.561Z,21.00
2018-05-31T23:04:14.856Z,21.20
2018-05-31T23:06:43.278Z,21.20
2018-05-31T23:09:12.564Z,21.20
2018-05-31T23:11:40.981Z,21.10
2018-05-31T23:14:09.286Z,21.00
2018-05-31T23:16:37.694Z,20.90
2018-05-31T23:19:06.032Z,20.90
2018-05-31T23:21:35.097Z,20.70
2018-05-31T23:24:03.442Z,20.70
2018-05-31T23:26:32.509Z,20.60
2018-05-31T23:29:01.028Z,20.60
2018-05-31T23:31:29.482Z,20.40
2018-05-31T23:33:57.854Z,20.40
2018-05-31T23:36:26.185Z,20.40
2018-05-31T23:38:55.273Z,20.60
2018-05-31T23:41:23.614Z,20.50
2018-05-31T23:43:52.673Z,20.60
2018-05-31T23:46:21.306Z,20.60
2018-05-31T23:48:49.700Z,20.60
2018-05-31T23:51:17.997Z,20.50
2018-05-31T23:53:46.409Z,20.50
2018-05-31T23:56:14.849Z,20.50
2018-05-31T23:58:43.926Z,20.10
